Time;durP1;ratioP1;P1;durP2;ratioP2;P2;SDS_P1;SDS_P2;PMS_P1;PMS_P2;Temp;Humidity;BMP_temperature;BMP_pressure;BME280_temperature;BME280_humidity;BME280_pressure;Samples;Min_cycle;Max_cycle;Signal;HPM_P1;HPM_P2
2023/11/25 07:36:34;;;;;;;;;1.00;0.00;;;;;;;;5107209;27;13399;-75
2023/11/25 07:38:59;;;;;;;;;1.00;0.00;;;;;;;;5088006;28;10400;-72
2023/11/25 07:41:25;;;;;;;;;0.00;0.00;;;;;;;;5087788;28;10190;-73
2023/11/25 07:43:51;;;;;;;;;3.50;3.00;;;;;;;;5087873;28;9695;-73
2023/11/25 07:46:17;;;;;;;;;7.00;5.00;;;;;;;;5087624;28;8806;-73
2023/11/25 07:48:43;;;;;;;;;1.00;0.00;;;;;;;;5088861;28;10779;-73
2023/11/25 07:51:08;;;;;;;;;11.25;6.75;;;;;;;;5088447;28;10715;-73
2023/11/25 07:53:33;;;;;;;;;0.00;0.00;;;;;;;;5088124;28;8790;-73
2023/11/25 07:55:59;;;;;;;;;0.00;0.00;;;;;;;;5086102;28;8880;-73
2023/11/25 07:58:25;;;;;;;;;1.00;0.00;;;;;;;;5087979;28;8851;-76
2023/11/25 08:00:50;;;;;;;;;0.50;0.00;;;;;;;;5087989;28;8798;-75
2023/11/25 08:03:16;;;;;;;;;0.00;0.00;;;;;;;;5083535;28;11001;-75
2023/11/25 08:05:42;;;;;;;;;0.00;0.00;;;;;;;;5094946;28;8849;-77
2023/11/25 08:08:08;;;;;;;;;0.00;0.00;;;;;;;;5087832;28;11035;-77
2023/11/25 08:10:34;;;;;;;;;0.00;0.00;;;;;;;;5087071;28;9547;-76
2023/11/25 08:13:00;;;;;;;;;0.00;0.00;;;;;;;;5087808;28;8794;-76
2023/11/25 08:15:25;;;;;;;;;0.00;0.00;;;;;;;;5087348;28;11178;-78
2023/11/25 08:17:50;;;;;;;;;0.00;0.00;;;;;;;;5087857;28;8895;-76
2023/11/25 08:20:17;;;;;;;;;0.00;0.00;;;;;;;;5087757;28;8790;-77
2023/11/25 08:22:43;;;;;;;;;1.00;0.00;;;;;;;;5089055;28;8875;-75
2023/11/25 08:25:09;;;;;;;;;0.00;0.00;;;;;;;;5087127;28;11374;-76
2023/11/25 08:27:34;;;;;;;;;0.00;0.00;;;;;;;;5088853;28;11437;-75
2023/11/25 08:30:00;;;;;;;;;1.00;0.00;;;;;;;;5087292;28;12062;-74
2023/11/25 08:32:25;;;;;;;;;0.00;0.00;;;;;;;;5087163;28;8786;-75
2023/11/25 08:34:50;;;;;;;;;0.00;0.00;;;;;;;;5085718;28;8851;-74
2023/11/25 08:37:16;;;;;;;;;0.00;0.00;;;;;;;;5086700;28;8814;-76
2023/11/25 08:39:42;;;;;;;;;0.00;0.00;;;;;;;;5086331;28;8917;-77
2023/11/25 08:42:09;;;;;;;;;0.00;0.00;;;;;;;;5087170;28;8782;-78
2023/11/25 08:44:35;;;;;;;;;2.50;0.00;;;;;;;;5086987;28;11390;-74
2023/11/25 08:47:01;;;;;;;;;0.00;0.00;;;;;;;;5078296;28;11434;-75
2023/11/25 08:49:26;;;;;;;;;0.00;0.00;;;;;;;;5073397;28;12230;-74
2023/11/25 08:51:52;;;;;;;;;0.00;0.00;;;;;;;;5073275;28;8799;-74
2023/11/25 08:54:20;;;;;;;;;0.00;0.00;;;;;;;;5073212;28;8872;-73
2023/11/25 08:56:47;;;;;;;;;0.00;0.00;;;;;;;;5072382;28;8966;-74
2023/11/25 08:59:20;;;;;;;;;0.00;0.00;;;;;;;;5073500;28;12146;-74
2023/11/25 09:01:47;;;;;;;;;0.00;0.00;;;;;;;;5073099;28;12129;-74
2023/11/25 09:04:17;;;;;;;;;0.00;0.00;;;;;;;;5073230;28;11358;-73
2023/11/25 09:06:42;;;;;;;;;0.00;0.00;;;;;;;;5071437;28;11381;-74
2023/11/25 09:09:08;;;;;;;;;0.00;0.00;;;;;;;;5073067;28;11438;-76
2023/11/25 09:11:34;;;;;;;;;1.00;0.00;;;;;;;;5071849;28;8850;-74
2023/11/25 09:13:59;;;;;;;;;0.00;0.00;;;;;;;;5072259;28;8811;-73
2023/11/25 09:16:30;;;;;;;;;0.00;0.00;;;;;;;;5071826;28;8961;-73
2023/11/25 09:18:56;;;;;;;;;0.50;0.00;;;;;;;;4864077;28;12084;-73
2023/11/25 09:21:21;;;;;;;;;0.00;0.00;;;;;;;;5001495;28;11478;-73
2023/11/25 09:23:46;;;;;;;;;0.00;0.00;;;;;;;;5031906;28;8827;-73
2023/11/25 09:26:11;;;;;;;;;0.00;0.00;;;;;;;;5031534;28;8834;-72
2023/11/25 09:28:37;;;;;;;;;0.00;0.00;;;;;;;;5030450;28;8846;-72
2023/11/25 09:31:02;;;;;;;;;0.00;0.00;;;;;;;;5032345;28;8909;-72
2023/11/25 09:33:27;;;;;;;;;1.00;1.00;;;;;;;;5032589;28;8800;-74
2023/11/25 09:35:53;;;;;;;;;0.00;0.00;;;;;;;;5032382;28;9746;-76
2023/11/25 09:38:18;;;;;;;;;0.00;0.00;;;;;;;;5032757;28;8788;-73
2023/11/25 09:40:44;;;;;;;;;0.00;0.00;;;;;;;;5032231;28;8804;-73
2023/11/25 09:43:09;;;;;;;;;0.00;0.00;;;;;;;;5032612;28;8811;-73
2023/11/25 17:15:10;;;;;;;;;0.00;0.00;;;;;;;;5106858;27;13452;-73
2023/11/25 17:17:38;;;;;;;;;0.00;0.00;;;;;;;;5108259;28;11471;-80
2023/11/25 17:20:06;;;;;;;;;2.00;2.00;;;;;;;;5108793;28;8818;-80
2023/11/25 17:22:31;;;;;;;;;7.00;5.00;;;;;;;;5108357;28;11446;-76
2023/11/25 17:24:57;;;;;;;;;7.00;7.00;;;;;;;;5108262;28;11507;-74
2023/11/25 17:27:24;;;;;;;;;7.75;7.00;;;;;;;;5108135;28;8788;-75
2023/11/25 17:29:49;;;;;;;;;8.50;7.75;;;;;;;;5106950;28;8811;-74
2023/11/25 17:32:14;;;;;;;;;12.50;10.00;;;;;;;;5108136;28;11434;-75
2023/11/25 17:34:40;;;;;;;;;6.50;4.00;;;;;;;;5107827;28;8878;-76
2023/11/25 17:37:05;;;;;;;;;5.00;5.00;;;;;;;;5108048;28;8810;-74
2023/11/25 17:39:33;;;;;;;;;3.50;3.50;;;;;;;;5108144;28;8831;-75
2023/11/25 17:41:58;;;;;;;;;2.00;2.00;;;;;;;;5108212;28;8788;-75
2023/11/25 17:44:24;;;;;;;;;4.50;2.00;;;;;;;;5109036;28;11475;-75
2023/11/25 17:46:49;;;;;;;;;1.00;1.00;;;;;;;;5107911;28;8814;-74
2023/11/25 17:49:14;;;;;;;;;1.25;1.00;;;;;;;;5107840;28;8791;-75
2023/11/25 17:51:40;;;;;;;;;1.00;0.00;;;;;;;;5107836;28;8796;-73
2023/11/25 17:54:05;;;;;;;;;0.50;0.50;;;;;;;;5107278;28;8898;-75
2023/11/25 17:56:31;;;;;;;;;0.00;0.00;;;;;;;;5107285;28;8796;-75
2023/11/25 17:58:57;;;;;;;;;0.00;0.00;;;;;;;;5109007;28;8776;-75
2023/11/25 18:01:22;;;;;;;;;1.50;1.50;;;;;;;;5107808;28;8792;-75
2023/11/25 18:03:48;;;;;;;;;2.00;2.00;;;;;;;;5107036;28;9563;-74
2023/11/25 18:06:13;;;;;;;;;1.25;1.25;;;;;;;;5106925;28;8792;-74
2023/11/25 18:08:38;;;;;;;;;1.00;1.00;;;;;;;;5107466;28;8760;-74
2023/11/25 18:11:04;;;;;;;;;1.00;1.00;;;;;;;;5106207;28;8807;-73
2023/11/25 18:13:30;;;;;;;;;1.00;0.00;;;;;;;;5107108;28;8816;-76
2023/11/25 18:15:55;;;;;;;;;1.75;1.75;;;;;;;;5107294;28;11391;-73
2023/11/25 18:18:21;;;;;;;;;1.75;1.75;;;;;;;;5107175;28;8779;-77
2023/11/25 18:20:46;;;;;;;;;1.00;1.00;;;;;;;;5106167;28;9505;-75
2023/11/25 18:23:11;;;;;;;;;1.00;1.00;;;;;;;;5107494;28;8880;-79
2023/11/25 18:25:37;;;;;;;;;0.00;0.00;;;;;;;;5098740;28;8793;-74
2023/11/25 18:28:02;;;;;;;;;3.00;1.00;;;;;;;;5093570;28;8814;-73
2023/11/25 18:30:27;;;;;;;;;4.00;1.00;;;;;;;;5093644;28;8799;-74
2023/11/25 18:32:53;;;;;;;;;2.00;1.50;;;;;;;;5093351;28;8799;-75
2023/11/25 18:35:18;;;;;;;;;4.25;1.00;;;;;;;;5092164;28;8804;-75
2023/11/25 18:37:43;;;;;;;;;1.00;1.00;;;;;;;;5093538;28;8792;-74
2023/11/25 18:40:09;;;;;;;;;6.00;6.00;;;;;;;;5093364;28;8788;-73
2023/11/25 18:42:34;;;;;;;;;2.50;2.50;;;;;;;;5092255;28;8922;-90
2023/11/25 18:45:00;;;;;;;;;3.75;2.00;;;;;;;;5091738;28;8827;-75
2023/11/25 18:47:25;;;;;;;;;5.75;4.00;;;;;;;;5093065;28;8808;-74
2023/11/25 18:49:50;;;;;;;;;7.00;7.00;;;;;;;;5093255;28;8950;-74
2023/11/25 18:52:15;;;;;;;;;9.50;9.00;;;;;;;;5092156;28;8976;-73
2023/11/25 18:54:44;;;;;;;;;8.50;6.00;;;;;;;;5091553;28;9569;-73
2023/11/25 18:57:09;;;;;;;;;12.50;8.25;;;;;;;;5092758;28;8776;-74
2023/11/25 18:59:35;;;;;;;;;8.50;8.00;;;;;;;;5092608;28;11473;-75
2023/11/25 19:02:00;;;;;;;;;7.75;7.75;;;;;;;;5092946;28;8799;-73
2023/11/25 19:04:25;;;;;;;;;8.00;7.00;;;;;;;;5092643;28;8864;-74
2023/11/25 19:06:51;;;;;;;;;7.50;7.50;;;;;;;;5091584;28;8885;-72
2023/11/25 19:09:17;;;;;;;;;9.00;8.00;;;;;;;;5092920;28;8810;-74
2023/11/25 19:11:42;;;;;;;;;16.00;15.50;;;;;;;;5092819;28;8792;-73
2023/11/25 19:14:08;;;;;;;;;26.75;19.00;;;;;;;;5092258;28;11522;-73
2023/11/25 19:16:34;;;;;;;;;20.00;19.00;;;;;;;;5094148;28;9622;-76
2023/11/25 19:18:59;;;;;;;;;26.75;18.00;;;;;;;;5092641;28;8780;-78
2023/11/25 19:21:27;;;;;;;;;13.00;13.00;;;;;;;;5092475;28;11583;-79
2023/11/25 19:23:52;;;;;;;;;30.25;24.75;;;;;;;;5091133;28;8800;-76
2023/11/25 19:26:17;;;;;;;;;21.00;21.00;;;;;;;;5090306;28;11513;-79
2023/11/25 19:28:43;;;;;;;;;18.00;18.00;;;;;;;;5092320;28;8800;-78
2023/11/25 19:31:08;;;;;;;;;21.75;20.00;;;;;;;;5093954;28;8796;-81
2023/11/25 19:33:33;;;;;;;;;28.25;20.50;;;;;;;;5092163;28;8823;-81
2023/11/25 19:35:59;;;;;;;;;18.00;14.50;;;;;;;;5090017;28;8830;-81
2023/11/25 19:38:25;;;;;;;;;16.00;12.50;;;;;;;;5091431;28;8776;-76
2023/11/25 19:40:50;;;;;;;;;21.00;19.25;;;;;;;;5091944;28;8892;-77
2023/11/25 19:43:16;;;;;;;;;31.00;29.00;;;;;;;;5091948;28;8841;-75
2023/11/25 19:45:41;;;;;;;;;33.00;23.75;;;;;;;;5093215;28;8773;-76
2023/11/25 19:48:07;;;;;;;;;27.75;21.50;;;;;;;;5092001;28;8792;-74
2023/11/25 19:50:32;;;;;;;;;21.50;18.50;;;;;;;;5091267;28;8784;-74
2023/11/25 19:52:57;;;;;;;;;43.67;37.00;;;;;;;;5091292;28;8803;-74
2023/11/25 19:55:22;;;;;;;;;28.25;25.00;;;;;;;;5091156;28;9648;-74
2023/11/25 19:57:48;;;;;;;;;36.00;27.50;;;;;;;;5091078;28;8868;-75
2023/11/25 20:00:15;;;;;;;;;30.00;24.50;;;;;;;;5091259;28;8867;-75
2023/11/25 20:02:41;;;;;;;;;23.25;21.25;;;;;;;;5091285;28;9532;-77
2023/11/25 20:05:06;;;;;;;;;28.25;23.00;;;;;;;;5092388;28;11647;-74
2023/11/25 20:07:32;;;;;;;;;31.25;28.00;;;;;;;;5090990;28;8839;-74
2023/11/25 20:09:57;;;;;;;;;27.50;25.50;;;;;;;;5091218;28;8804;-73
2023/11/25 20:12:22;;;;;;;;;32.50;27.25;;;;;;;;5089320;28;8890;-73
2023/11/25 20:14:48;;;;;;;;;29.25;24.00;;;;;;;;5091044;28;8836;-74
2023/11/25 20:17:13;;;;;;;;;24.50;21.50;;;;;;;;5094147;28;8803;-73
2023/11/25 20:19:39;;;;;;;;;28.75;27.00;;;;;;;;5101357;28;8852;-73
2023/11/25 20:22:08;;;;;;;;;26.50;24.75;;;;;;;;5101081;28;8815;-75
2023/11/25 20:24:34;;;;;;;;;25.50;20.75;;;;;;;;5099777;28;8829;-75
2023/11/25 20:26:59;;;;;;;;;26.00;23.25;;;;;;;;5100863;28;11500;-75
2023/11/25 20:29:24;;;;;;;;;24.75;21.75;;;;;;;;5098881;28;9737;-76
2023/11/25 20:31:50;;;;;;;;;31.75;24.00;;;;;;;;5090740;28;8820;-75
2023/11/25 20:34:15;;;;;;;;;17.25;15.50;;;;;;;;5091936;28;8784;-76
2023/11/25 20:36:41;;;;;;;;;18.00;17.00;;;;;;;;5091342;28;8792;-75
2023/11/25 20:39:07;;;;;;;;;18.00;15.00;;;;;;;;5091429;28;8818;-76
2023/11/25 20:41:33;;;;;;;;;13.25;13.25;;;;;;;;5090621;28;8780;-77
2023/11/25 20:43:58;;;;;;;;;17.00;14.75;;;;;;;;5090655;28;11483;-78
2023/11/25 20:46:23;;;;;;;;;22.00;17.75;;;;;;;;5091065;28;8804;-78
2023/11/25 20:48:49;;;;;;;;;2.00;0.00;;;;;;;;5089478;28;8824;-83
2023/11/25 20:51:18;;;;;;;;;30.50;22.75;;;;;;;;5089860;28;8815;-80
2023/11/25 20:53:43;;;;;;;;;23.50;19.50;;;;;;;;5090500;28;8836;-81
2023/11/25 20:56:09;;;;;;;;;24.25;23.00;;;;;;;;5090572;28;11575;-88
2023/11/25 20:58:34;;;;;;;;;36.75;32.00;;;;;;;;5090548;28;8887;-88
2023/11/25 21:01:03;;;;;;;;;29.33;27.00;;;;;;;;5095601;28;8804;-88
2023/11/25 21:03:28;;;;;;;;;27.67;27.00;;;;;;;;5087808;28;8795;-88
2023/11/25 21:05:53;;;;;;;;;31.33;25.33;;;;;;;;5090427;28;11508;-82
2023/11/25 21:08:19;;;;;;;;;31.00;27.00;;;;;;;;5089908;28;8808;-88
2023/11/25 21:10:44;;;;;;;;;27.67;24.00;;;;;;;;5088650;28;8800;-88
2023/11/25 21:13:09;;;;;;;;;31.33;23.33;;;;;;;;5090185;28;8862;-86
2023/11/25 21:15:35;;;;;;;;;27.67;25.33;;;;;;;;5090162;28;8795;-86
2023/11/25 21:18:01;;;;;;;;;32.00;29.33;;;;;;;;5090705;28;8808;-90
2023/11/25 21:20:27;;;;;;;;;27.00;22.00;;;;;;;;5090480;28;9646;-88
2023/11/25 21:22:52;;;;;;;;;26.33;21.33;;;;;;;;5090224;28;11604;-89
2023/11/25 21:25:21;;;;;;;;;25.00;22.00;;;;;;;;5089156;28;9533;-88
2023/11/25 21:27:47;;;;;;;;;22.67;22.67;;;;;;;;5088821;28;8823;-89
2023/11/25 21:30:12;;;;;;;;;28.33;22.67;;;;;;;;5090647;28;9533;-90
2023/11/25 21:32:38;;;;;;;;;28.67;24.33;;;;;;;;5089053;28;8879;-88
2023/11/25 21:35:04;;;;;;;;;23.00;21.33;;;;;;;;5090182;28;8866;-91
2023/11/25 21:37:29;;;;;;;;;22.67;19.00;;;;;;;;5092921;28;8792;-90
2023/11/25 21:39:54;;;;;;;;;22.33;21.33;;;;;;;;5088934;28;8908;-88
2023/11/25 21:42:20;;;;;;;;;24.00;24.00;;;;;;;;5088923;28;8836;-87
2023/11/25 21:44:45;;;;;;;;;22.00;20.67;;;;;;;;5089288;28;8815;-80
2023/11/25 21:47:10;;;;;;;;;20.00;20.00;;;;;;;;5090489;28;8951;-80
2023/11/25 21:49:39;;;;;;;;;24.33;20.00;;;;;;;;5090329;28;8895;-78
2023/11/25 21:52:04;;;;;;;;;29.00;25.00;;;;;;;;5090459;28;8784;-79
2023/11/25 21:54:30;;;;;;;;;27.00;27.00;;;;;;;;5091453;28;8934;-88
2023/11/25 21:56:55;;;;;;;;;26.67;24.67;;;;;;;;5089606;28;8792;-85
2023/11/25 21:59:20;;;;;;;;;20.67;20.00;;;;;;;;5090669;28;8792;-86
2023/11/25 22:01:46;;;;;;;;;26.67;23.33;;;;;;;;5093792;28;9576;-83
2023/11/25 22:04:11;;;;;;;;;27.67;25.67;;;;;;;;5092759;28;8822;-84
2023/11/25 22:06:37;;;;;;;;;11.67;5.67;;;;;;;;5094348;28;8815;-79
2023/11/25 22:09:03;;;;;;;;;23.00;21.33;;;;;;;;5095792;28;8864;-80
2023/11/25 22:11:31;;;;;;;;;17.33;17.33;;;;;;;;5093653;28;9510;-79
2023/11/25 22:13:56;;;;;;;;;21.67;18.67;;;;;;;;5093861;28;8827;-81
2023/11/25 22:16:23;;;;;;;;;25.67;21.00;;;;;;;;5093544;28;11491;-80
2023/11/25 22:18:48;;;;;;;;;23.00;20.67;;;;;;;;5093847;28;8768;-79
2023/11/25 22:21:14;;;;;;;;;20.00;20.00;;;;;;;;5093617;28;11503;-80
2023/11/25 22:23:47;;;;;;;;;24.00;17.67;;;;;;;;5093683;28;8914;-80
2023/11/25 22:26:20;;;;;;;;;20.00;20.00;;;;;;;;5093649;28;8811;-80
2023/11/25 22:28:46;;;;;;;;;18.00;18.00;;;;;;;;5093637;28;11499;-80
2023/11/25 22:31:14;;;;;;;;;16.00;16.00;;;;;;;;5093791;28;11620;-79
2023/11/25 22:33:39;;;;;;;;;21.67;17.00;;;;;;;;5093540;28;8842;-81
2023/11/25 22:36:08;;;;;;;;;19.33;19.00;;;;;;;;5087021;28;11504;-80
2023/11/25 22:38:33;;;;;;;;;23.67;17.67;;;;;;;;5095534;28;8904;-80
2023/11/25 22:41:00;;;;;;;;;23.67;18.33;;;;;;;;5085362;28;8799;-79
2023/11/25 22:43:26;;;;;;;;;19.00;19.00;;;;;;;;5071735;28;8798;-80
2023/11/25 22:45:52;;;;;;;;;22.33;19.00;;;;;;;;5071937;28;8864;-79
2023/11/25 22:48:18;;;;;;;;;19.00;19.00;;;;;;;;5071891;28;8806;-77
2023/11/25 22:50:44;;;;;;;;;16.67;16.00;;;;;;;;5073218;28;8799;-80
2023/11/25 22:53:09;;;;;;;;;21.67;15.33;;;;;;;;5074406;28;8806;-77
2023/11/25 22:55:34;;;;;;;;;20.00;15.67;;;;;;;;5093233;28;9621;-76
2023/11/25 22:57:59;;;;;;;;;14.33;12.67;;;;;;;;5091932;28;8831;-78
2023/11/25 23:00:29;;;;;;;;;20.00;19.00;;;;;;;;5093164;28;8818;-77
2023/11/25 23:02:55;;;;;;;;;19.00;18.00;;;;;;;;5093105;28;8788;-75
2023/11/25 23:05:20;;;;;;;;;24.67;18.33;;;;;;;;5091733;28;8966;-76
2023/11/25 23:07:45;;;;;;;;;20.00;18.00;;;;;;;;5093026;28;8876;-75
2023/11/25 23:10:10;;;;;;;;;23.67;19.33;;;;;;;;5094468;28;8788;-76
2023/11/25 23:12:36;;;;;;;;;22.67;19.33;;;;;;;;5092654;28;8861;-76
2023/11/25 23:15:01;;;;;;;;;24.67;19.33;;;;;;;;5092726;28;8878;-76
2023/11/25 23:17:27;;;;;;;;;17.00;17.00;;;;;;;;5092820;28;8796;-75
2023/11/25 23:19:52;;;;;;;;;18.67;17.00;;;;;;;;5091361;28;8818;-75
2023/11/25 23:22:17;;;;;;;;;20.33;16.67;;;;;;;;5092745;28;8810;-76
2023/11/25 23:24:43;;;;;;;;;18.67;15.00;;;;;;;;5092409;28;8824;-76
2023/11/25 23:27:08;;;;;;;;;15.67;15.67;;;;;;;;5091326;28;8811;-76
2023/11/25 23:29:33;;;;;;;;;17.00;14.67;;;;;;;;5092640;28;8808;-75
2023/11/25 23:31:59;;;;;;;;;15.00;12.67;;;;;;;;5092519;28;8772;-75
2023/11/25 23:34:25;;;;;;;;;19.67;14.00;;;;;;;;5091277;28;8828;-75
2023/11/25 23:36:50;;;;;;;;;15.00;14.00;;;;;;;;5092523;28;8788;-76
2023/11/25 23:39:16;;;;;;;;;16.00;12.00;;;;;;;;5094680;28;8824;-83
2023/11/25 23:41:41;;;;;;;;;14.00;12.00;;;;;;;;5092714;28;9515;-82
2023/11/25 23:44:06;;;;;;;;;11.00;10.33;;;;;;;;5092490;28;9486;-83
2023/11/25 23:46:32;;;;;;;;;17.00;11.67;;;;;;;;5092280;28;8803;-75
2023/11/25 23:48:57;;;;;;;;;14.33;14.33;;;;;;;;5090964;28;8812;-76
